Time;durP1;ratioP1;P1;durP2;ratioP2;P2;SDS_P1;SDS_P2;PMS_P1;PMS_P2;Temp;Humidity;BMP_temperature;BMP_pressure;BME280_temperature;BME280_humidity;BME280_pressure;Samples;Min_cycle;Max_cycle;Signal;HPM_P1;HPM_P2
2021/08/04 00:00:27;;;;;;;;;;;;;;;23.88;44.24;100944.66;5011794;28;96833;-83
2021/08/04 00:02:55;;;;;;;;;;;;;;;23.92;43.94;100942.53;5008177;28;97722;-83
2021/08/04 00:05:24;;;;;;;;;;;;;;;23.89;44.29;100935.56;5011526;28;100967;-83
2021/08/04 00:07:51;;;;;;;;;;;;;;;24.00;44.19;100943.56;5006771;28;98229;-83
2021/08/04 00:10:17;;;;;;;;;;;;;;;23.91;44.31;100944.38;5009131;28;96775;-83
2021/08/04 00:12:44;;;;;;;;;;;;;;;23.83;44.59;100936.94;5007914;28;97629;-83
2021/08/04 00:15:12;;;;;;;;;;;;;;;23.61;45.52;100941.66;5007949;28;98993;-82
2021/08/04 00:17:38;;;;;;;;;;;;;;;23.54;45.80;100937.78;5007952;28;100282;-83
2021/08/04 00:20:13;;;;;;;;;;;;;;;23.65;45.23;100938.56;5004500;28;96854;-83
2021/08/04 00:22:39;;;;;;;;;;;;;;;23.54;46.15;100937.78;5009520;28;96777;-84
2021/08/04 00:25:05;;;;;;;;;;;;;;;23.74;45.59;100932.38;4997230;28;98834;-84
2021/08/04 00:27:32;;;;;;;;;;;;;;;23.75;45.48;100935.91;4994220;28;99802;-84
2021/08/04 00:29:58;;;;;;;;;;;;;;;23.67;46.02;100935.72;4998679;28;96932;-84
2021/08/04 00:32:25;;;;;;;;;;;;;;;23.47;46.94;100928.47;5000643;28;96804;-84
2021/08/04 00:34:52;;;;;;;;;;;;;;;23.54;47.06;100935.09;5002343;28;102016;-83
2021/08/04 00:37:20;;;;;;;;;;;;;;;23.65;46.63;100926.91;4996199;28;97767;-83
2021/08/04 00:39:46;;;;;;;;;;;;;;;23.59;46.64;100927.44;5006994;28;96930;-82
2021/08/04 00:42:12;;;;;;;;;;;;;;;23.28;47.34;100934.59;5008088;28;97350;-83
2021/08/04 00:44:39;;;;;;;;;;;;;;;23.43;47.19;100930.59;5005570;28;101393;-83
2021/08/04 00:47:05;;;;;;;;;;;;;;;23.30;47.87;100935.34;5010407;28;100230;-83
2021/08/04 00:49:32;;;;;;;;;;;;;;;23.40;47.68;100934.41;5015137;28;98264;-83
2021/08/04 00:51:59;;;;;;;;;;;;;;;23.58;47.18;100940.06;5012090;28;96828;-83
2021/08/04 00:54:27;;;;;;;;;;;;;;;23.58;46.94;100939.22;5010325;28;99050;-82
2021/08/04 00:56:53;;;;;;;;;;;;;;;23.73;45.82;100940.59;5006697;28;101113;-84
2021/08/04 00:59:20;;;;;;;;;;;;;;;23.56;45.96;100938.50;5007620;28;96610;-82
2021/08/04 01:01:47;;;;;;;;;;;;;;;23.65;45.59;100945.78;5012313;28;96865;-83
2021/08/04 01:04:17;;;;;;;;;;;;;;;23.55;46.73;100947.59;5001980;28;96975;-83
2021/08/04 01:06:47;;;;;;;;;;;;;;;23.63;45.94;100945.09;4997379;28;97959;-84
2021/08/04 01:09:14;;;;;;;;;;;;;;;23.67;45.33;100941.97;5007709;28;97119;-83
2021/08/04 01:11:46;;;;;;;;;;;;;;;23.71;45.39;100950.66;5003185;28;96533;-83
2021/08/04 01:14:15;;;;;;;;;;;;;;;23.69;45.02;100950.81;5007513;28;97864;-83
2021/08/04 01:16:42;;;;;;;;;;;;;;;23.68;45.43;100949.09;5002916;28;99086;-83
2021/08/04 01:19:13;;;;;;;;;;;;;;;23.57;45.30;100951.00;5006197;28;96725;-84
2021/08/04 01:21:40;;;;;;;;;;;;;;;23.66;45.10;100955.59;4995512;28;99942;-84
2021/08/04 01:24:11;;;;;;;;;;;;;;;23.63;44.96;100950.50;5005530;28;99324;-84
2021/08/04 01:26:39;;;;;;;;;;;;;;;23.58;45.31;100947.31;5004730;28;100754;-84
2021/08/04 01:29:08;;;;;;;;;;;;;;;23.64;45.05;100954.88;5003969;28;96954;-82
2021/08/04 01:31:36;;;;;;;;;;;;;;;23.69;44.87;100944.56;4992893;28;97171;-83
2021/08/04 01:34:03;;;;;;;;;;;;;;;23.61;45.09;100941.66;4995295;28;98534;-85
2021/08/04 01:36:33;;;;;;;;;;;;;;;23.42;45.57;100937.84;4999564;28;99448;-83
2021/08/04 01:39:02;;;;;;;;;;;;;;;23.38;45.94;100949.00;5000684;28;97179;-83
2021/08/04 01:41:29;;;;;;;;;;;;;;;23.17;46.58;100948.97;4999979;28;96919;-82
2021/08/04 01:43:57;;;;;;;;;;;;;;;23.12;46.69;100951.22;4998589;28;100185;-85
2021/08/04 01:46:24;;;;;;;;;;;;;;;23.33;46.67;100951.22;4995691;28;100835;-83
2021/08/04 01:48:52;;;;;;;;;;;;;;;23.41;46.82;100944.22;5000725;28;96880;-84
2021/08/04 01:51:19;;;;;;;;;;;;;;;23.32;46.72;100949.53;4990770;28;96717;-84
2021/08/04 01:53:47;;;;;;;;;;;;;;;23.34;46.84;100945.72;4999066;28;100483;-83
2021/08/04 01:56:14;;;;;;;;;;;;;;;23.53;46.24;100946.84;5002142;28;99799;-84
2021/08/04 01:58:41;;;;;;;;;;;;;;;23.30;46.12;100941.56;5002011;28;96648;-84
2021/08/04 02:01:09;;;;;;;;;;;;;;;23.20;46.39;100942.47;5004385;28;96849;-83
2021/08/04 02:03:36;;;;;;;;;;;;;;;23.26;46.54;100942.81;5003029;28;98240;-85
2021/08/04 02:06:04;;;;;;;;;;;;;;;23.19;47.38;100944.31;4992632;28;99174;-85
2021/08/04 02:08:33;;;;;;;;;;;;;;;22.95;48.08;100943.72;5004139;28;96805;-84
2021/08/04 02:11:03;;;;;;;;;;;;;;;23.17;47.51;100940.88;5007362;28;95976;-83
2021/08/04 02:13:31;;;;;;;;;;;;;;;23.04;48.01;100942.91;5006864;28;99179;-83
2021/08/04 02:16:06;;;;;;;;;;;;;;;22.98;48.22;100947.00;5015810;28;99313;-83
2021/08/04 02:18:35;;;;;;;;;;;;;;;22.97;47.74;100944.44;5005175;28;96567;-83
2021/08/04 02:21:02;;;;;;;;;;;;;;;22.86;48.81;100949.84;4997015;28;97151;-83
2021/08/04 02:23:32;;;;;;;;;;;;;;;23.15;47.89;100942.88;4996165;28;99537;-83
2021/08/04 02:26:00;;;;;;;;;;;;;;;23.06;47.71;100946.34;4992471;28;98005;-83
2021/08/04 02:28:27;;;;;;;;;;;;;;;23.01;47.83;100944.03;4985974;28;96697;-83
2021/08/04 02:30:54;;;;;;;;;;;;;;;23.06;47.58;100946.34;4997161;28;96813;-83
2021/08/04 02:33:21;;;;;;;;;;;;;;;23.09;47.38;100938.00;4996871;28;100315;-83
2021/08/04 02:35:49;;;;;;;;;;;;;;;23.15;46.68;100940.19;4981519;28;99187;-83
2021/08/04 02:38:17;;;;;;;;;;;;;;;23.09;47.15;100945.25;5001291;28;96639;-83
2021/08/04 02:40:44;;;;;;;;;;;;;;;23.03;47.61;100950.19;5006286;28;96808;-83
2021/08/04 02:43:12;;;;;;;;;;;;;;;23.07;46.98;100942.66;5010006;28;99123;-83
2021/08/04 02:45:38;;;;;;;;;;;;;;;23.10;46.99;100955.91;5013545;28;96824;-83
2021/08/04 02:48:05;;;;;;;;;;;;;;;23.08;47.61;100955.16;5015704;28;96649;-82
2021/08/04 02:50:32;;;;;;;;;;;;;;;23.11;47.40;100956.72;5004659;28;96792;-83
2021/08/04 02:53:00;;;;;;;;;;;;;;;22.96;47.36;100951.66;4997856;28;98929;-81
2021/08/04 02:55:27;;;;;;;;;;;;;;;22.95;47.24;100955.34;4998955;28;100969;-80
2021/08/04 02:57:54;;;;;;;;;;;;;;;22.97;47.11;100950.66;5002678;28;96813;-81
2021/08/04 03:00:20;;;;;;;;;;;;;;;22.95;47.42;100955.34;4989167;28;97291;-82
2021/08/04 03:02:46;;;;;;;;;;;;;;;22.78;47.69;100958.56;4989634;28;98838;-81
2021/08/04 03:05:13;;;;;;;;;;;;;;;22.66;47.91;100948.78;4996147;28;98111;-82
2021/08/04 03:07:39;;;;;;;;;;;;;;;22.65;47.70;100953.31;4994301;28;97005;-82
2021/08/04 03:10:08;;;;;;;;;;;;;;;22.73;47.52;100951.84;4997001;28;96971;-82
2021/08/04 03:12:34;;;;;;;;;;;;;;;22.94;47.13;100955.47;4982155;28;98080;-81
2021/08/04 03:15:00;;;;;;;;;;;;;;;22.94;46.98;100953.63;4994549;28;98802;-82
2021/08/04 03:17:26;;;;;;;;;;;;;;;22.62;47.98;100955.41;4992711;28;96804;-82
2021/08/04 03:19:53;;;;;;;;;;;;;;;22.69;47.93;100950.38;4997609;28;96928;-83
2021/08/04 03:22:19;;;;;;;;;;;;;;;22.88;47.53;100948.75;4998387;28;98095;-84
2021/08/04 03:24:46;;;;;;;;;;;;;;;22.86;47.66;100952.56;5006688;28;96880;-84
2021/08/04 03:27:13;;;;;;;;;;;;;;;22.91;47.73;100953.88;5000412;28;96790;-85
2021/08/04 03:29:40;;;;;;;;;;;;;;;22.80;48.00;100950.38;4999535;28;97803;-82
2021/08/04 03:32:07;;;;;;;;;;;;;;;22.85;47.85;100945.44;4999075;28;99318;-85
2021/08/04 03:34:33;;;;;;;;;;;;;;;22.86;48.28;100941.78;5000004;28;100254;-83
2021/08/04 03:37:00;;;;;;;;;;;;;;;22.67;48.85;100951.34;4999485;28;96907;-82
2021/08/04 03:39:26;;;;;;;;;;;;;;;22.75;48.45;100952.59;5010237;28;96911;-83
2021/08/04 03:41:52;;;;;;;;;;;;;;;22.76;48.62;100951.63;5001204;28;97914;-83
2021/08/04 03:44:21;;;;;;;;;;;;;;;22.90;48.46;100951.31;5006985;28;97364;-83
2021/08/04 03:46:48;;;;;;;;;;;;;;;22.86;48.60;100955.25;5002259;28;96754;-83
2021/08/04 03:49:14;;;;;;;;;;;;;;;22.88;48.49;100955.97;5007685;28;96866;-84
2021/08/04 03:51:41;;;;;;;;;;;;;;;22.94;48.71;100948.25;5007324;28;98232;-84
2021/08/04 03:54:07;;;;;;;;;;;;;;;22.98;48.59;100952.38;5005797;28;97766;-83
2021/08/04 03:56:33;;;;;;;;;;;;;;;23.09;48.52;100951.50;4990430;28;96764;-84
2021/08/04 03:59:00;;;;;;;;;;;;;;;23.04;48.57;100959.09;4988106;28;97204;-84
2021/08/04 04:01:28;;;;;;;;;;;;;;;23.00;48.72;100963.88;4990491;28;99740;-83
2021/08/04 04:03:54;;;;;;;;;;;;;;;22.97;49.01;100963.31;4996223;28;98420;-83
2021/08/04 04:06:21;;;;;;;;;;;;;;;22.99;48.70;100970.25;4992288;28;96869;-82
2021/08/04 04:08:47;;;;;;;;;;;;;;;22.90;49.18;100972.88;4997860;28;96886;-82
2021/08/04 04:11:15;;;;;;;;;;;;;;;22.77;49.48;100974.88;4995876;28;99353;-85
2021/08/04 04:13:42;;;;;;;;;;;;;;;22.87;49.24;100978.50;5002449;28;100733;-83
2021/08/04 04:16:09;;;;;;;;;;;;;;;22.77;49.64;100978.44;4992433;28;97308;-82
2021/08/04 04:18:36;;;;;;;;;;;;;;;22.82;49.51;100983.44;4997481;28;96914;-83
2021/08/04 04:21:03;;;;;;;;;;;;;;;22.92;49.33;100977.16;4998830;28;98995;-81
2021/08/04 04:23:29;;;;;;;;;;;;;;;22.78;49.61;100979.25;5000285;28;98609;-82
2021/08/04 04:25:55;;;;;;;;;;;;;;;22.82;49.61;100983.44;5001187;28;96787;-83
2021/08/04 04:28:22;;;;;;;;;;;;;;;22.84;49.63;100986.88;5002051;28;96664;-83
2021/08/04 04:30:48;;;;;;;;;;;;;;;22.87;49.69;100978.50;4998318;28;97896;-83
2021/08/04 04:33:15;;;;;;;;;;;;;;;22.95;49.27;100990.38;4990509;28;99810;-82
2021/08/04 04:35:43;;;;;;;;;;;;;;;22.91;49.54;100985.34;4999955;28;97979;-84
2021/08/04 04:38:09;;;;;;;;;;;;;;;22.82;49.93;100987.00;4983454;28;96885;-84
2021/08/04 04:40:36;;;;;;;;;;;;;;;22.94;49.41;100988.66;4997844;28;99243;-84
2021/08/04 04:43:02;;;;;;;;;;;;;;;23.03;49.01;100987.91;4986015;28;98961;-85
2021/08/04 04:45:28;;;;;;;;;;;;;;;23.24;48.48;100984.34;4995950;28;96932;-82
2021/08/04 04:47:56;;;;;;;;;;;;;;;22.79;49.81;100987.22;5003264;28;96774;-83
2021/08/04 04:50:23;;;;;;;;;;;;;;;23.17;48.76;100985.88;5001320;28;96767;-83
2021/08/04 04:52:51;;;;;;;;;;;;;;;23.26;48.65;100988.66;5000291;28;100591;-85
2021/08/04 04:55:18;;;;;;;;;;;;;;;23.32;48.40;100990.81;4993381;28;97640;-85
2021/08/04 04:57:45;;;;;;;;;;;;;;;22.92;49.86;101000.53;4999157;28;96929;-84
2021/08/04 05:00:12;;;;;;;;;;;;;;;23.27;49.00;100997.59;4996555;28;100338;-83
2021/08/04 05:02:38;;;;;;;;;;;;;;;22.63;50.58;100992.16;4979834;28;99983;-85
2021/08/04 05:05:05;;;;;;;;;;;;;;;22.40;51.19;101004.78;4996541;28;98431;-84
2021/08/04 05:07:31;;;;;;;;;;;;;;;22.95;49.81;100997.59;4986550;28;96793;-85
2021/08/04 05:09:59;;;;;;;;;;;;;;;23.09;49.58;101004.53;4998805;28;99048;-85
2021/08/04 05:12:27;;;;;;;;;;;;;;;23.33;48.91;100999.78;5004011;28;98091;-86
2021/08/04 05:14:54;;;;;;;;;;;;;;;22.62;50.80;101007.44;5004829;28;97163;-85
2021/08/04 05:17:21;;;;;;;;;;;;;;;22.85;50.28;101002.03;4988375;28;96937;-85
2021/08/04 05:19:48;;;;;;;;;;;;;;;23.09;49.63;101004.53;4997475;28;99928;-84
2021/08/04 05:22:14;;;;;;;;;;;;;;;23.27;49.09;101005.69;4992139;28;98014;-86
2021/08/04 05:24:40;;;;;;;;;;;;;;;23.36;48.74;101002.22;5008410;28;96659;-85
2021/08/04 05:27:08;;;;;;;;;;;;;;;23.20;49.05;101002.66;5001400;28;96762;-83
2021/08/04 05:29:34;;;;;;;;;;;;;;;23.71;47.99;101005.47;5019397;28;97851;-83
2021/08/04 05:32:01;;;;;;;;;;;;;;;23.84;47.54;100999.84;5017831;28;96680;-81
2021/08/04 05:34:28;;;;;;;;;;;;;;;23.74;47.75;101013.31;5017196;28;96506;-81
2021/08/04 05:36:55;;;;;;;;;;;;;;;23.22;49.21;101013.31;5009130;28;97159;-82
2021/08/04 05:39:21;;;;;;;;;;;;;;;23.47;48.88;101014.78;4996608;28;98600;-82
2021/08/04 05:41:47;;;;;;;;;;;;;;;23.61;48.05;101019.88;4998194;28;96916;-83
2021/08/04 05:44:15;;;;;;;;;;;;;;;23.21;49.33;101023.22;4998595;28;96813;-83
2021/08/04 05:46:41;;;;;;;;;;;;;;;22.99;50.09;101015.22;4991602;28;96819;-85
2021/08/04 05:49:08;;;;;;;;;;;;;;;23.53;48.76;101025.94;5004882;28;97865;-84
2021/08/04 05:51:34;;;;;;;;;;;;;;;23.77;48.16;101022.97;4999547;28;97731;-84
2021/08/04 05:54:00;;;;;;;;;;;;;;;23.96;47.61;101030.34;5017177;28;96906;-83
2021/08/04 05:56:27;;;;;;;;;;;;;;;23.14;49.49;101030.13;5014728;28;96329;-84
2021/08/04 05:58:53;;;;;;;;;;;;;;;23.64;48.60;101025.00;5017095;28;98210;-85
2021/08/04 06:01:21;;;;;;;;;;;;;;;23.68;48.39;101031.88;5016407;28;101634;-84
2021/08/04 06:03:48;;;;;;;;;;;;;;;23.94;47.52;101030.47;5018312;28;96341;-82
2021/08/04 06:06:14;;;;;;;;;;;;;;;23.88;47.76;101033.72;5011946;28;96627;-82
2021/08/04 06:08:41;;;;;;;;;;;;;;;23.97;47.59;101040.13;5000746;28;100228;-83
2021/08/04 06:11:07;;;;;;;;;;;;;;;23.84;47.96;101038.50;5004489;28;100095;-82
2021/08/04 06:13:33;;;;;;;;;;;;;;;24.00;47.47;101039.88;5004177;28;96801;-81
2021/08/04 06:16:00;;;;;;;;;;;;;;;24.03;48.01;101040.44;4996006;28;98738;-83
2021/08/04 06:18:28;;;;;;;;;;;;;;;24.27;47.35;101047.44;4999262;28;98674;-82
2021/08/04 06:20:55;;;;;;;;;;;;;;;24.14;47.43;101044.94;4986754;28;99623;-81
2021/08/04 06:23:21;;;;;;;;;;;;;;;24.17;47.30;101052.75;4994866;28;97281;-83
2021/08/04 06:25:48;;;;;;;;;;;;;;;24.40;46.68;101039.97;4998794;28;97744;-85
2021/08/04 06:28:14;;;;;;;;;;;;;;;24.22;47.10;101045.13;4984314;28;99018;-83
2021/08/04 06:30:42;;;;;;;;;;;;;;;24.08;47.09;101040.94;4983119;28;97855;-83
2021/08/04 06:33:08;;;;;;;;;;;;;;;24.28;46.72;101043.75;5000647;28;96907;-82
2021/08/04 06:35:39;;;;;;;;;;;;;;;24.03;47.19;101043.16;5003327;28;97797;-84
2021/08/04 06:38:10;;;;;;;;;;;;;;;24.20;46.67;101039.03;4993656;28;100137;-83
2021/08/04 06:40:37;;;;;;;;;;;;;;;24.07;47.08;101041.91;4998690;28;100621;-82
2021/08/04 06:43:03;;;;;;;;;;;;;;;24.67;45.70;101039.34;5006668;28;96908;-83
2021/08/04 06:45:30;;;;;;;;;;;;;;;24.61;45.26;101046.16;5004758;28;96792;-83
2021/08/04 06:47:57;;;;;;;;;;;;;;;24.61;44.86;101038.06;5006379;28;98261;-84
2021/08/04 06:50:26;;;;;;;;;;;;;;;24.07;45.63;101050.00;5000891;28;99071;-84
2021/08/04 06:52:55;;;;;;;;;;;;;;;24.28;44.99;101050.00;4990534;28;96976;-82
2021/08/04 06:55:21;;;;;;;;;;;;;;;24.48;44.77;101045.53;4993121;28;97216;-81
2021/08/04 06:57:48;;;;;;;;;;;;;;;24.58;44.91;101047.28;4995184;28;100758;-82
2021/08/04 07:00:16;;;;;;;;;;;;;;;24.58;45.20;101051.81;5001121;28;101292;-85
2021/08/04 07:02:43;;;;;;;;;;;;;;;24.58;45.18;101041.03;4994266;28;97156;-85
2021/08/04 07:05:10;;;;;;;;;;;;;;;24.78;44.74;101048.19;4988627;28;96683;-83
2021/08/04 07:07:37;;;;;;;;;;;;;;;24.62;44.84;101050.53;5002452;28;99581;-80
2021/08/04 07:10:09;;;;;;;;;;;;;;;24.94;44.12;101048.53;4991729;28;100334;-84
2021/08/04 07:12:37;;;;;;;;;;;;;;;23.88;46.14;101049.03;4987097;28;99030;-83
2021/08/04 07:15:12;;;;;;;;;;;;;;;24.55;44.77;101046.69;4983900;28;97406;-83
2021/08/04 07:17:45;;;;;;;;;;;;;;;24.73;44.82;101055.00;4996552;28;100529;-82
2021/08/04 07:20:15;;;;;;;;;;;;;;;24.96;44.37;101057.34;4990448;28;101422;-83
2021/08/04 07:22:41;;;;;;;;;;;;;;;24.54;45.15;101062.06;4994501;28;97101;-83
2021/08/04 07:25:10;;;;;;;;;;;;;;;24.71;45.06;101051.56;4994109;28;96915;-83
2021/08/04 07:27:37;;;;;;;;;;;;;;;25.10;43.93;101064.22;4989575;28;100141;-83
2021/08/04 07:30:05;;;;;;;;;;;;;;;25.25;43.72;101059.25;4997819;28;98022;-82
2021/08/04 07:32:31;;;;;;;;;;;;;;;25.26;43.16;101052.84;4995812;28;96926;-82
2021/08/04 07:35:00;;;;;;;;;;;;;;;25.60;42.36;101056.84;4992177;28;97190;-80
2021/08/04 07:37:28;;;;;;;;;;;;;;;25.57;42.38;101062.56;4996389;28;99300;-84
2021/08/04 07:39:55;;;;;;;;;;;;;;;24.18;45.45;101070.66;4997392;28;99318;-82
2021/08/04 07:42:23;;;;;;;;;;;;;;;24.20;45.55;101064.19;4998675;28;97274;-85
2021/08/04 07:44:49;;;;;;;;;;;;;;;24.85;44.13;101059.31;4983142;28;96855;-80
2021/08/04 07:47:15;;;;;;;;;;;;;;;25.35;42.84;101066.38;4987819;28;98872;-81
2021/08/04 07:49:42;;;;;;;;;;;;;;;25.53;41.69;101055.72;4991347;28;101212;-80
2021/08/04 07:52:09;;;;;;;;;;;;;;;25.44;41.84;101061.97;4996593;28;97210;-85
2021/08/04 07:54:36;;;;;;;;;;;;;;;25.26;42.58;101061.81;5001707;28;96864;-83
2021/08/04 07:57:03;;;;;;;;;;;;;;;25.42;41.79;101064.81;4999978;28;98961;-84
2021/08/04 07:59:32;;;;;;;;;;;;;;;25.62;42.01;101057.56;5001577;28;100605;-84
2021/08/04 08:02:04;;;;;;;;;;;;;;;25.13;43.48;101058.53;4998830;28;96936;-83
2021/08/04 08:04:46;;;;;;;;;;;;;;;25.47;42.71;101058.13;5000843;28;96896;-83
2021/08/04 08:07:38;;;;;;;;;;;;;;;25.74;41.90;101063.69;5007012;28;100425;-83
2021/08/04 08:10:04;;;;;;;;;;;;;;;25.61;42.02;101060.41;5007371;28;99905;-83
2021/08/04 08:12:32;;;;;;;;;;;;;;;25.85;41.77;101060.84;5004239;28;96693;-83
2021/08/04 08:15:00;;;;;;;;;;;;;;;25.84;41.81;101067.25;5003108;28;97047;-83
2021/08/04 08:17:26;;;;;;;;;;;;;;;26.08;41.04;101066.75;4987906;28;99084;-84
2021/08/04 08:22:41;;;;;;;;;;;;;;;25.89;41.50;101061.38;5003490;28;97443;-81
2021/08/04 08:25:11;;;;;;;;;;;;;;;25.89;41.10;101066.81;5002109;28;96956;-82
2021/08/04 08:27:39;;;;;;;;;;;;;;;25.86;41.27;101067.09;5001421;28;100065;-80
2021/08/04 08:30:11;;;;;;;;;;;;;;;25.90;41.73;101068.50;5003557;28;99176;-81
2021/08/04 08:32:37;;;;;;;;;;;;;;;26.12;40.94;101060.06;5005992;28;97553;-82
2021/08/04 08:35:04;;;;;;;;;;;;;;;25.97;41.16;101056.97;5011828;28;96558;-81
2021/08/04 08:37:39;;;;;;;;;;;;;;;26.11;40.83;101063.78;5002523;28;97133;-79
2021/08/04 08:40:07;;;;;;;;;;;;;;;26.53;39.93;101054.22;5005356;28;97436;-81
2021/08/04 08:42:33;;;;;;;;;;;;;;;26.57;40.28;101062.91;5007626;28;96938;-80
2021/08/04 08:45:01;;;;;;;;;;;;;;;26.21;41.33;101056.47;5006427;28;96722;-83
2021/08/04 08:47:29;;;;;;;;;;;;;;;25.54;42.69;101057.41;4995662;28;99425;-81
2021/08/04 08:49:57;;;;;;;;;;;;;;;26.18;40.86;101054.91;4996756;28;99695;-81
2021/08/04 08:52:25;;;;;;;;;;;;;;;26.50;40.52;101051.81;4998238;28;97207;-81
2021/08/04 08:54:51;;;;;;;;;;;;;;;26.24;41.02;101058.03;4998975;28;96735;-82
2021/08/04 08:57:18;;;;;;;;;;;;;;;26.65;39.83;101057.56;5001779;28;99352;-82
2021/08/04 08:59:49;;;;;;;;;;;;;;;26.49;40.98;101054.69;4994315;28;100575;-82
2021/08/04 09:02:15;;;;;;;;;;;;;;;26.54;40.61;101058.63;4997107;28;97272;-83
2021/08/04 09:04:55;;;;;;;;;;;;;;;26.70;39.34;101052.59;4996336;28;97161;-82
2021/08/04 09:07:29;;;;;;;;;;;;;;;26.74;39.31;101048.56;5000294;28;98295;-82
2021/08/04 09:09:56;;;;;;;;;;;;;;;26.98;38.82;101056.13;4998702;28;98567;-80
2021/08/04 09:12:22;;;;;;;;;;;;;;;27.11;37.87;101050.38;5001026;28;97219;-84
2021/08/04 09:14:49;;;;;;;;;;;;;;;27.20;37.53;101047.56;4997017;28;96974;-78
2021/08/04 09:17:16;;;;;;;;;;;;;;;26.97;37.52;101040.91;5086839;22;99575;-82
2021/08/04 09:19:45;;;;;;;;;;;;;;;27.06;37.67;101050.81;4975468;28;99222;-83
2021/08/04 09:22:16;;;;;;;;;;;;;;;27.30;37.30;101044.78;4975342;28;96867;-83
2021/08/04 09:24:53;;;;;;;;;;;;;;;27.29;37.87;101035.78;4979724;28;97083;-82
2021/08/04 09:27:19;;;;;;;;;;;;;;;27.67;37.21;101041.91;4977849;28;96746;-80
2021/08/04 09:29:57;;;;;;;;;;;;;;;27.68;37.37;101044.47;4980048;28;97755;-82
2021/08/04 09:32:26;;;;;;;;;;;;;;;26.75;38.44;101043.97;4976157;28;96896;-82
2021/08/04 09:35:08;;;;;;;;;;;;;;;27.07;38.37;101046.22;4967256;28;96571;-82
2021/08/04 09:37:36;;;;;;;;;;;;;;;27.33;37.00;101023.63;4960922;28;100050;-81
2021/08/04 09:40:03;;;;;;;;;;;;;;;28.20;35.38;101022.78;4957071;28;98902;-81
2021/08/04 09:42:40;;;;;;;;;;;;;;;27.49;36.54;101027.50;4958982;28;98029;-79
2021/08/04 09:45:08;;;;;;;;;;;;;;;26.75;38.04;101027.72;4950165;28;96762;-80
2021/08/04 09:47:35;;;;;;;;;;;;;;;27.99;35.87;101023.13;4956272;28;97944;-79
2021/08/04 09:50:02;;;;;;;;;;;;;;;28.05;35.53;101027.06;4957573;28;101817;-81
2021/08/04 09:52:30;;;;;;;;;;;;;;;27.79;35.12;101031.66;4963524;28;96945;-80
2021/08/04 09:55:10;;;;;;;;;;;;;;;27.82;34.87;101024.06;4962789;28;96848;-80
2021/08/04 09:57:39;;;;;;;;;;;;;;;29.07;32.68;101016.16;4966674;28;98133;-79
2021/08/04 10:00:08;;;;;;;;;;;;;;;27.97;34.56;101021.56;4966825;28;97764;-80
2021/08/04 10:02:34;;;;;;;;;;;;;;;28.00;34.82;101021.28;4957300;28;97037;-78
2021/08/04 10:05:13;;;;;;;;;;;;;;;28.68;32.54;101019.44;4950586;28;97262;-79
2021/08/04 10:07:59;;;;;;;;;;;;;;;29.22;32.20;101018.03;4954265;28;98339;-79
2021/08/04 10:10:25;;;;;;;;;;;;;;;27.79;34.43;101018.06;4965204;28;99272;-79
2021/08/04 10:12:52;;;;;;;;;;;;;;;28.29;32.89;101010.09;4957855;28;96828;-79
2021/08/04 10:15:18;;;;;;;;;;;;;;;27.79;33.76;101016.22;4956982;28;97307;-81
2021/08/04 10:17:45;;;;;;;;;;;;;;;27.95;33.55;101019.06;4958851;28;99102;-81
2021/08/04 10:20:11;;;;;;;;;;;;;;;28.54;32.46;101011.91;4952195;28;98999;-80
2021/08/04 10:22:38;;;;;;;;;;;;;;;28.80;32.14;101020.88;4958450;28;96835;-79
2021/08/04 10:25:06;;;;;;;;;;;;;;;29.70;31.22;101010.94;4959810;28;96979;-81
2021/08/04 10:27:32;;;;;;;;;;;;;;;29.87;30.56;101017.19;4957812;28;99077;-80
2021/08/04 10:29:59;;;;;;;;;;;;;;;29.32;30.37;101007.00;4956017;28;98383;-80
2021/08/04 10:32:26;;;;;;;;;;;;;;;27.86;33.22;101014.56;4952486;28;97403;-80
2021/08/04 10:34:54;;;;;;;;;;;;;;;28.69;32.52;101004.81;4955249;28;97364;-79
2021/08/04 10:37:21;;;;;;;;;;;;;;;28.48;32.74;101015.28;4955320;28;97805;-79
2021/08/04 10:39:47;;;;;;;;;;;;;;;27.96;33.82;101007.16;4957245;28;100374;-80
2021/08/04 10:42:15;;;;;;;;;;;;;;;27.98;34.03;101002.41;4955148;28;98453;-80
2021/08/04 10:44:43;;;;;;;;;;;;;;;27.59;34.40;101010.13;4956324;28;98463;-79
2021/08/04 10:47:25;;;;;;;;;;;;;;;28.16;34.32;101006.97;4959399;28;101861;-79
2021/08/04 10:50:07;;;;;;;;;;;;;;;28.99;32.49;101002.53;4955414;28;99337;-81
2021/08/04 10:52:33;;;;;;;;;;;;;;;29.37;31.70;101004.66;4959160;28;97060;-79
2021/08/04 10:55:06;;;;;;;;;;;;;;;29.71;30.94;100994.44;4957577;28;97074;-79
2021/08/04 10:57:36;;;;;;;;;;;;;;;28.40;33.49;100996.22;4955261;28;98758;-78
2021/08/04 11:00:21;;;;;;;;;;;;;;;28.80;32.36;100999.13;4954859;28;99020;-80
2021/08/04 11:02:47;;;;;;;;;;;;;;;29.17;31.75;101000.53;4957245;28;96968;-80
2021/08/04 11:05:14;;;;;;;;;;;;;;;27.95;33.62;101002.75;4956191;28;97035;-80
2021/08/04 11:08:03;;;;;;;;;;;;;;;27.70;34.46;101000.84;4960857;28;100975;-78
2021/08/04 11:10:37;;;;;;;;;;;;;;;28.14;33.62;101002.56;4955880;28;100700;-82
2021/08/04 11:13:05;;;;;;;;;;;;;;;28.21;33.73;101001.91;4964835;28;98337;-79
2021/08/04 11:15:32;;;;;;;;;;;;;;;27.60;34.32;101000.13;4967744;28;97111;-81
2021/08/04 11:18:02;;;;;;;;;;;;;;;27.92;33.76;100997.63;4964324;28;97964;-79
2021/08/04 11:20:28;;;;;;;;;;;;;;;27.62;34.44;100988.09;4966094;28;97684;-79
2021/08/04 11:22:55;;;;;;;;;;;;;;;27.22;34.68;100998.59;4959474;28;96796;-80
2021/08/04 11:25:31;;;;;;;;;;;;;;;27.07;34.66;100992.84;4960416;28;96779;-79
2021/08/04 11:28:10;;;;;;;;;;;;;;;28.13;33.12;100997.25;4955329;28;98584;-79
2021/08/04 11:30:37;;;;;;;;;;;;;;;28.63;31.92;100993.75;4954939;28;99552;-81
2021/08/04 11:33:24;;;;;;;;;;;;;;;28.62;32.24;100990.16;4959184;28;97906;-80
2021/08/04 11:35:59;;;;;;;;;;;;;;;28.78;31.99;100995.69;4959695;28;97209;-79
2021/08/04 11:38:34;;;;;;;;;;;;;;;28.82;31.26;100983.47;4956407;28;98167;-78
2021/08/04 11:41:11;;;;;;;;;;;;;;;29.25;31.29;100984.22;4955180;28;99095;-79
2021/08/04 11:43:39;;;;;;;;;;;;;;;28.84;31.10;100988.75;4956686;28;97344;-80
2021/08/04 11:46:05;;;;;;;;;;;;;;;28.23;31.75;100989.00;4957487;28;96872;-81
2021/08/04 11:48:47;;;;;;;;;;;;;;;27.81;32.15;100991.63;4957366;28;98920;-80
2021/08/04 11:51:13;;;;;;;;;;;;;;;28.50;31.22;100991.50;4958025;28;101755;-81
2021/08/04 11:53:43;;;;;;;;;;;;;;;28.05;32.34;100991.75;4953657;28;109390;-79
2021/08/04 11:56:09;;;;;;;;;;;;;;;28.04;31.43;100990.06;4948986;28;97887;-78
2021/08/04 11:58:35;;;;;;;;;;;;;;;28.76;30.42;100986.00;4963702;28;99021;-78
2021/08/04 12:01:16;;;;;;;;;;;;;;;29.36;29.45;100988.47;4957317;28;97642;-79
2021/08/04 12:03:42;;;;;;;;;;;;;;;29.54;29.87;100987.28;4957027;28;97055;-78
2021/08/04 12:06:15;;;;;;;;;;;;;;;29.31;29.31;100987.09;4966919;28;97132;-79
2021/08/04 12:08:42;;;;;;;;;;;;;;;29.86;29.83;100980.13;4960935;28;97772;-78
2021/08/04 12:11:08;;;;;;;;;;;;;;;29.68;29.54;100986.59;4958688;28;98870;-76
2021/08/04 12:13:35;;;;;;;;;;;;;;;29.59;29.65;100987.66;4963714;28;97064;-79
2021/08/04 12:16:01;;;;;;;;;;;;;;;29.80;29.96;100980.81;4962868;28;97154;-77
2021/08/04 12:18:29;;;;;;;;;;;;;;;29.70;29.98;100975.53;4960160;28;99976;-78
2021/08/04 12:20:56;;;;;;;;;;;;;;;28.03;31.51;100980.19;4960842;28;99101;-76
2021/08/04 12:23:23;;;;;;;;;;;;;;;27.15;33.35;100984.78;4961022;28;97610;-77
2021/08/04 12:25:57;;;;;;;;;;;;;;;27.54;32.95;100970.91;4960069;28;96979;-80
2021/08/04 12:28:28;;;;;;;;;;;;;;;28.25;31.84;100976.09;4969034;28;98111;-79
2021/08/04 12:30:55;;;;;;;;;;;;;;;27.63;32.43;100976.25;4964877;28;96814;-79
2021/08/04 12:33:26;;;;;;;;;;;;;;;28.46;31.84;100971.09;4968807;28;96788;-78
2021/08/04 12:36:02;;;;;;;;;;;;;;;28.60;31.23;100977.78;4968595;28;96955;-78
2021/08/04 12:38:30;;;;;;;;;;;;;;;29.00;30.70;100977.91;4963772;28;99543;-77
2021/08/04 12:40:57;;;;;;;;;;;;;;;29.10;30.04;100973.13;4956917;28;97992;-78
2021/08/04 12:43:23;;;;;;;;;;;;;;;29.07;30.22;100962.59;4955021;28;97136;-77